Stations météo

réclame
Mon MeteoGroup
Gladhammar, Suède (2559): Température de l'air & dewpoint: 17.05.2018 22:00:00 - 23.05.2018 22:00:00 (CEST)Gladhammar, Suède (2559): Vitesse du vent & gusts: 17.05.2018 22:00:00 - 23.05.2018 22:00:00 (CEST)Gladhammar, Suède (2559): Direction du vent: 17.05.2018 22:00:00 - 23.05.2018 22:00:00 (CEST)Gladhammar, Suède (2559): visibility: 17.05.2018 22:00:00 - 23.05.2018 22:00:00 (CEST)Gladhammar, Suède (2559): Quantités de précipitations: 17.05.2018 22:00:00 - 23.05.2018 22:00:00 (CEST)
Date & Time tt [°C] td [°C] ff [km/h] ff [knt] fx [km/h] fx [knt] dd vv [km] rr [mm]
23.05.2018 22:00:00 14,3 9,5 4 2 18 10 NE 50 0,0
23.05.2018 21:00:00 16,6 9,0 12 6 20 11 ENE 50 0,0
23.05.2018 20:00:00 20,3 5,1 10 6 21 12 ENE 50 0,0
23.05.2018 19:00:00 21,7 3,4 16 8 24 13 ENE 44 0,0
23.05.2018 18:00:00 23,2 4,2 13 7 20 11 E 46 0,0
23.05.2018 17:00:00 24,0 4,9 9 5 18 10 SE 41 0,0
23.05.2018 16:00:00 24,4 4,2 8 5 23 12 SSE 39 0,0
23.05.2018 15:00:00 25,0 4,2 8 5 21 11 S 31 0,0
23.05.2018 14:00:00 25,1 5,3 9 5 21 11 SSE 36 0,0
23.05.2018 13:00:00 24,1 5,0 5 3 19 11 ESE 33 0,0
23.05.2018 12:00:00 24,5 6,7 5 3 18 10 N 45 0,0
23.05.2018 11:00:00 23,3 5,2 7 4 15 8 ENE 34 0,0
23.05.2018 10:00:00 22,5 5,4 4 2 10 5 S 30 0,0
23.05.2018 09:00:00 20,9 8,2 4 2 8 4 E 38 0,0
23.05.2018 08:00:00 18,9 11,0 0 0 4 2 N 44 0,0
23.05.2018 07:00:00 14,6 10,2 0 0 4 2 N 38 0,0
23.05.2018 06:00:00 10,5 8,3 0 0 3 2 N 27 0,0
23.05.2018 05:00:00 6,3 6,0 0 0 4 2 N 37 0,0
23.05.2018 04:00:00 6,1 5,7 0 0 3 2 N 26 0,0
23.05.2018 03:00:00 6,4 5,8 0 0 4 2 N 41 0,0
23.05.2018 02:00:00 7,1 6,5 0 0 3 2 N 42 0,0
23.05.2018 01:00:00 7,4 6,5 0 0 3 2 N 46 0,0
23.05.2018 00:00:00 8,2 6,8 0 0 4 2 N 50 0,0
22.05.2018 23:00:00 8,8 6,4 0 0 4 2 N 50 0,0
22.05.2018 22:00:00 10,2 6,2 0 0 4 2 N 50 0,0
22.05.2018 21:00:00 13,1 6,4 0 0 8 4 N 50 0,0
22.05.2018 20:00:00 16,5 5,1 5 3 12 7 ESE 50 0,0
22.05.2018 19:00:00 17,4 6,0 8 4 17 9 E 50 0,0
22.05.2018 18:00:00 19,2 3,8 11 6 26 14 E 50 0,0
22.05.2018 17:00:00 20,9 6,4 13 7 22 12 E 36 0,0
22.05.2018 16:00:00 21,8 3,0 9 5 18 10 S 20 0,0
22.05.2018 15:00:00 21,5 3,7 13 7 24 13 E 33 0,0
22.05.2018 14:00:00 21,5 5,0 11 6 24 13 E 31 0,0
22.05.2018 13:00:00 20,8 6,0 11 6 28 15 E 34 0,0
22.05.2018 12:00:00 21,2 4,7 8 4 19 11 ENE 34 0,0
22.05.2018 11:00:00 19,9 4,0 12 6 22 12 ENE 38 0,0
22.05.2018 10:00:00 19,0 5,8 10 6 18 10 ENE 38 0,0
22.05.2018 09:00:00 17,3 8,2 8 5 14 8 ENE 35 0,0
22.05.2018 08:00:00 16,4 8,4 5 3 8 5 ENE 44 0,0
22.05.2018 07:00:00 13,5 9,5 2 1 5 3 N 40 0,0
22.05.2018 06:00:00 7,9 5,7 0 0 2 1 N 40 0,0
22.05.2018 05:00:00 4,7 4,3 0 0 1 1 N 44 0,0
22.05.2018 04:00:00 4,5 3,9 0 0 2 1 N 41 0,0
22.05.2018 03:00:00 4,8 4,1 0 0 3 2 N 45 0,0
22.05.2018 02:00:00 5,4 4,5 0 0 3 1 N 50 0,0
22.05.2018 01:00:00 6,2 4,0 0 0 2 1 N 50 0,0
22.05.2018 00:00:00 7,3 3,9 0 0 2 1 N 50 0,0
21.05.2018 23:00:00 8,9 4,6 0 0 3 1 N 50 0,0
21.05.2018 22:00:00 10,6 4,3 0 0 2 1 N 50 0,0
21.05.2018 21:00:00 14,5 3,6 0 0 8 5 N 50 0,0
21.05.2018 20:00:00 17,9 1,4 6 4 13 7 E 50 -
21.05.2018 19:00:00 19,2 3,0 9 5 19 10 E 50 -
21.05.2018 18:00:00 20,9 0,1 15 8 22 12 E 50 -
21.05.2018 17:00:00 22,1 1,7 16 8 24 13 E 38 -
21.05.2018 16:00:00 22,6 4,1 - - - - - 41 -
21.05.2018 15:00:00 23,4 3,3 2 1 12 6 N 38 0,0
21.05.2018 14:00:00 22,7 2,2 4 2 12 7 ENE 32 0,0
21.05.2018 13:00:00 22,5 2,0 5 3 17 9 WSW 41 0,0
21.05.2018 12:00:00 22,9 3,4 5 3 14 8 W 37 0,0
21.05.2018 11:00:00 21,8 2,0 7 4 16 9 SSW 29 0,0
21.05.2018 10:00:00 22,3 3,9 6 3 17 9 NW 29 0,0
21.05.2018 09:00:00 19,8 6,5 7 4 16 8 WSW 32 0,0
21.05.2018 08:00:00 16,9 6,1 8 4 16 9 W 38 0,0
21.05.2018 07:00:00 12,5 9,1 0 0 9 5 N 47 0,0
21.05.2018 06:00:00 9,7 5,3 3 1 10 5 W 50 0,0
21.05.2018 05:00:00 9,8 4,8 5 3 12 6 W 48 0,0
21.05.2018 04:00:00 10,3 4,4 8 4 16 9 W 50 0,0
21.05.2018 03:00:00 9,3 4,3 7 4 14 7 W 50 0,0
21.05.2018 02:00:00 8,7 4,1 5 3 9 5 WSW 50 0,0
21.05.2018 01:00:00 9,5 4,3 5 3 7 4 SW 50 0,0
21.05.2018 00:00:00 13,9 3,4 4 2 15 8 SSW 50 0,0
20.05.2018 23:00:00 15,6 3,1 8 4 18 10 SSW 50 0,0
20.05.2018 22:00:00 16,9 3,2 7 4 17 9 SSW 50 0,0
20.05.2018 21:00:00 18,5 3,9 10 5 21 11 SSW 50 0,0
20.05.2018 20:00:00 19,9 4,8 13 7 31 17 S 43 0,0
20.05.2018 19:00:00 20,8 4,8 11 6 28 15 S 50 0,0
20.05.2018 18:00:00 21,6 4,2 16 9 29 16 S 27 0,0
20.05.2018 17:00:00 23,0 4,0 16 9 27 15 S 31 0,0
20.05.2018 16:00:00 24,6 2,1 14 7 29 16 SSW 19 0,0
20.05.2018 15:00:00 23,6 3,0 18 10 32 17 S 29 0,0
20.05.2018 14:00:00 23,9 2,7 15 8 26 14 SSW 35 0,0
20.05.2018 13:00:00 23,3 2,2 15 8 26 14 SSW 41 0,0
20.05.2018 12:00:00 23,0 1,9 13 7 27 15 SW 26 0,0
20.05.2018 11:00:00 22,0 1,1 13 7 27 15 WSW 29 0,0
20.05.2018 10:00:00 21,1 1,4 13 7 23 13 WSW 35 0,0
20.05.2018 09:00:00 19,1 1,6 11 6 21 11 SW 32 0,0
20.05.2018 08:00:00 17,6 4,2 8 5 15 8 W 35 0,0
20.05.2018 07:00:00 14,6 4,3 10 5 18 10 W 38 0,0
20.05.2018 06:00:00 11,2 4,4 7 4 13 7 W 45 0,0
20.05.2018 05:00:00 7,6 3,5 8 4 21 11 W 50 0,0
20.05.2018 04:00:00 9,0 2,8 11 6 19 11 W 50 0,0
20.05.2018 03:00:00 8,2 2,2 9 5 16 9 W 50 0,0
20.05.2018 02:00:00 7,8 1,8 8 5 14 7 WSW 50 0,0
20.05.2018 01:00:00 7,8 2,1 7 4 12 6 WSW 50 0,0
20.05.2018 00:00:00 5,2 2,5 5 3 9 5 WSW 50 0,0
19.05.2018 23:00:00 6,1 2,2 6 4 10 5 WSW 50 0,0
19.05.2018 22:00:00 8,3 1,2 3 1 7 4 W 50 0,0
19.05.2018 21:00:00 12,1 1,7 6 3 13 7 S 50 0,0
19.05.2018 20:00:00 14,4 1,3 8 4 14 8 S 50 0,0
19.05.2018 19:00:00 15,6 0,2 6 4 13 7 SSE 50 0,0
19.05.2018 18:00:00 15,9 -0,4 8 4 17 9 SE 33 0,0
19.05.2018 17:00:00 16,5 -0,3 8 4 18 10 SE 32 0,0
19.05.2018 16:00:00 16,6 -0,2 10 5 22 12 ESE 42 0,0
19.05.2018 15:00:00 16,7 1,2 9 5 25 14 E 35 0,0
19.05.2018 14:00:00 16,7 0,8 16 9 25 14 E 42 0,0
19.05.2018 13:00:00 16,7 1,9 16 9 27 14 E 32 0,0
19.05.2018 12:00:00 16,8 3,1 14 7 25 14 ENE 34 0,0
19.05.2018 11:00:00 16,9 1,7 13 7 31 17 NE 31 0,0
19.05.2018 10:00:00 16,3 0,8 11 6 25 13 NE 35 0,0
19.05.2018 09:00:00 16,0 2,4 9 5 15 8 N 39 0,0
19.05.2018 08:00:00 14,5 4,8 5 3 13 7 N 36 0,0
19.05.2018 07:00:00 12,1 6,4 0 0 9 5 N 38 0,0
19.05.2018 06:00:00 8,1 4,3 0 0 12 6 N 41 0,0
19.05.2018 05:00:00 4,1 3,4 5 3 11 6 W 42 0,0
19.05.2018 04:00:00 2,7 2,1 0 0 5 3 N 30 0,0
19.05.2018 03:00:00 2,9 2,2 0 0 5 3 N 43 0,0
19.05.2018 02:00:00 3,0 2,1 0 0 3 2 N 41 0,0
19.05.2018 01:00:00 3,7 2,4 0 0 3 2 N 45 0,0
19.05.2018 00:00:00 4,3 2,3 0 0 4 2 N 48 0,0
18.05.2018 23:00:00 5,4 2,6 2 1 4 2 W 48 0,0
18.05.2018 22:00:00 7,9 2,6 0 0 6 4 N 50 0,0
18.05.2018 21:00:00 12,0 1,6 5 3 14 7 E 50 0,0
18.05.2018 20:00:00 13,8 0,4 5 3 13 7 E 49 0,0
18.05.2018 19:00:00 14,9 0,0 12 7 23 12 E 50 0,0
18.05.2018 18:00:00 15,8 1,1 12 7 23 12 E 40 0,0
18.05.2018 17:00:00 16,0 0,9 15 8 26 14 ENE 37 0,0
18.05.2018 16:00:00 16,5 2,9 15 8 29 15 ENE 31 0,0
18.05.2018 15:00:00 16,7 2,7 20 11 34 18 E 33 0,0
18.05.2018 14:00:00 17,3 3,2 20 11 31 17 E 31 0,0
18.05.2018 13:00:00 17,5 4,8 14 7 29 15 NNE 31 0,0
18.05.2018 12:00:00 17,0 2,2 18 10 29 16 ENE 40 0,0
18.05.2018 11:00:00 16,4 0,9 15 8 41 22 NNE 36 0,0
18.05.2018 10:00:00 15,5 -0,3 19 10 39 21 NNE 23 0,0
18.05.2018 09:00:00 14,6 3,1 17 9 37 20 N 28 0,0
18.05.2018 08:00:00 13,3 2,8 16 9 32 17 N 34 0,0
18.05.2018 07:00:00 12,1 3,6 14 8 31 17 N 37 0,0
18.05.2018 06:00:00 10,7 3,2 12 7 23 12 NNW 39 0,0
18.05.2018 05:00:00 10,1 3,1 10 5 24 13 N 50 0,0
18.05.2018 04:00:00 8,9 2,9 11 6 21 11 NNW 50 0,0
18.05.2018 03:00:00 9,0 2,8 7 4 23 12 N 50 0,0
18.05.2018 02:00:00 9,9 3,8 10 5 20 11 N 50 0,0
18.05.2018 01:00:00 10,4 5,2 9 5 18 10 N 48 0,0
18.05.2018 00:00:00 11,0 7,5 8 4 15 8 NNW 50 0,0
17.05.2018 23:00:00 10,1 7,7 0 0 5 3 N 50 0,0
17.05.2018 22:00:00 10,5 7,7 0 0 5 3 N 50 0,0

tt = Température de l'air
td = dewpoint
ff = Vitesse du vent
fx = gusts
dd = Direction du vent
vv = visibility
rr = Quantités de précipitations

stations d'obs. à proximité